Time;durP1;ratioP1;P1;durP2;ratioP2;P2;SDS_P1;SDS_P2;PMS_P1;PMS_P2;Temp;Humidity;BMP_temperature;BMP_pressure;BME280_temperature;BME280_humidity;BME280_pressure;Samples;Min_cycle;Max_cycle;Signal;HPM_P1;HPM_P2
2021/04/21 00:02:12;;;;;;;22.50;16.15;;;;;;;6.25;73.24;101076.19;5022322;28;20305;-75
2021/04/21 00:04:38;;;;;;;20.35;15.00;;;;;;;6.19;73.65;101066.75;5013732;28;20034;-76
2021/04/21 00:07:04;;;;;;;23.50;16.30;;;;;;;6.16;73.84;101069.63;5013021;28;20036;-75
2021/04/21 00:09:31;;;;;;;21.08;15.25;;;;;;;6.06;74.53;101057.78;5025141;28;20067;-75
2021/04/21 00:11:57;;;;;;;24.35;18.27;;;;;;;6.02;74.80;101062.47;5021070;28;20048;-75
2021/04/21 00:14:24;;;;;;;25.20;19.27;;;;;;;5.99;75.66;101057.34;5010714;28;20033;-75
2021/04/21 00:16:56;;;;;;;24.15;19.05;;;;;;;5.94;75.85;101065.66;5027271;28;20025;-75
2021/04/21 00:19:24;;;;;;;29.98;19.80;;;;;;;5.90;76.48;101057.91;5024519;28;20033;-75
2021/04/21 00:21:50;;;;;;;29.88;19.63;;;;;;;5.90;77.25;101057.91;5011313;28;20041;-75
2021/04/21 00:24:17;;;;;;;25.70;18.92;;;;;;;5.90;76.71;101056.06;5021434;28;20063;-75
2021/04/21 00:26:47;;;;;;;23.63;19.30;;;;;;;5.81;76.79;101048.66;5018569;28;20071;-75
2021/04/21 00:29:15;;;;;;;29.23;20.42;;;;;;;5.79;77.98;101053.25;5015295;28;20025;-75
2021/04/21 00:31:44;;;;;;;26.13;20.50;;;;;;;5.80;77.88;101049.63;5022159;28;20039;-75
2021/04/21 00:34:12;;;;;;;32.65;22.38;;;;;;;5.82;78.75;101050.41;5022961;28;20536;-75
2021/04/21 00:36:41;;;;;;;47.40;34.65;;;;;;;5.79;78.88;101049.75;5029312;28;20039;-76
2021/04/21 00:39:11;;;;;;;36.92;24.38;;;;;;;5.73;79.14;101043.81;5017850;28;20044;-76
2021/04/21 00:42:07;;;;;;;30.77;23.00;;;;;;;5.66;79.17;101038.94;5027846;28;20026;-75
2021/04/21 00:44:54;;;;;;;30.92;22.35;;;;;;;5.62;80.42;101037.44;5027278;28;20029;-76
2021/04/21 00:47:57;;;;;;;27.90;23.02;;;;;;;5.58;80.66;101033.28;5019526;28;20074;-75
2021/04/21 00:50:35;;;;;;;24.08;20.35;;;;;;;5.50;81.58;101033.72;5034218;28;20032;-75
2021/04/21 00:53:13;;;;;;;32.20;23.38;;;;;;;5.58;81.34;101033.28;5029990;28;20037;-76
2021/04/21 00:55:51;;;;;;;29.90;23.05;;;;;;;5.57;80.97;101029.75;5014537;28;20116;-76
2021/04/21 00:58:26;;;;;;;30.50;21.75;;;;;;;5.47;81.73;101033.91;5012724;28;20095;-76
2021/04/21 01:00:55;;;;;;;34.15;25.33;;;;;;;5.54;82.44;101032.59;5030663;28;20056;-76
2021/04/21 01:03:25;;;;;;;34.00;27.67;;;;;;;5.53;82.59;101022.88;5014346;28;20112;-76
2021/04/21 01:06:01;;;;;;;39.55;28.77;;;;;;;5.52;81.71;101032.69;5023053;28;20029;-75
2021/04/21 01:08:32;;;;;;;34.33;25.95;;;;;;;5.58;83.09;101033.28;5032315;28;20029;-76
2021/04/21 01:11:06;;;;;;;38.10;29.02;;;;;;;5.55;83.01;101028.97;5031951;28;20037;-76
2021/04/21 01:13:42;;;;;;;40.85;29.38;;;;;;;5.54;82.40;101021.94;5020188;28;20036;-76
2021/04/21 01:16:09;;;;;;;36.28;27.77;;;;;;;5.53;83.30;101029.06;5031877;28;20033;-76
2021/04/21 01:18:35;;;;;;;39.25;28.50;;;;;;;5.54;82.93;101024.59;5033792;28;20406;-76
2021/04/21 01:21:39;;;;;;;35.50;27.85;;;;;;;5.46;83.62;101025.06;5016950;28;20068;-76
2021/04/21 01:24:10;;;;;;;30.17;24.20;;;;;;;5.35;83.62;101021.34;5006118;28;20044;-76
2021/04/21 01:26:51;;;;;;;36.35;29.80;;;;;;;5.40;83.63;101025.44;5013483;28;20033;-76
2021/04/21 01:29:32;;;;;;;39.63;31.15;;;;;;;5.50;83.31;101018.56;5018338;28;20119;-76
2021/04/21 01:32:00;;;;;;;38.92;31.60;;;;;;;5.57;83.22;101016.41;5024412;28;20033;-75
2021/04/21 01:34:30;;;;;;;38.95;30.40;;;;;;;5.55;84.95;101022.78;5026952;28;20036;-76
2021/04/21 01:36:58;;;;;;;40.08;31.30;;;;;;;5.56;84.24;101009.34;5015065;28;20045;-76
2021/04/21 01:39:24;;;;;;;42.53;33.58;;;;;;;5.62;85.13;101013.44;5026424;28;20112;-76
2021/04/21 01:41:53;;;;;;;43.00;35.30;;;;;;;5.63;85.18;101009.81;5022613;28;20091;-76
2021/04/21 01:44:26;;;;;;;41.40;33.83;;;;;;;5.63;85.73;101007.13;5020832;28;20144;-76
2021/04/21 01:47:03;;;;;;;40.10;33.25;;;;;;;5.58;85.96;101007.44;5029893;28;20025;-76
2021/04/21 01:49:35;;;;;;;44.42;32.88;;;;;;;5.57;85.71;101007.53;5018632;28;20025;-76
2021/04/21 01:52:35;;;;;;;38.70;32.60;;;;;;;5.52;85.25;101010.50;5031163;28;20119;-76
2021/04/21 01:55:08;;;;;;;44.95;34.92;;;;;;;5.57;84.92;101007.53;4990575;28;20033;-76
2021/04/21 01:57:46;;;;;;;37.72;30.33;;;;;;;5.48;84.90;101003.66;5027024;28;20092;-76
2021/04/21 02:00:28;;;;;;;40.22;32.03;;;;;;;5.43;84.42;100997.75;5024995;28;20028;-76
2021/04/21 02:03:07;;;;;;;42.00;31.48;;;;;;;5.36;84.06;100991.94;5015243;28;20082;-76
2021/04/21 02:05:49;;;;;;;41.58;32.97;;;;;;;5.30;84.16;100995.84;5027307;28;20488;-76
2021/04/21 02:08:23;;;;;;;38.83;29.70;;;;;;;5.23;84.76;100996.31;5024439;28;20477;-76
2021/04/21 02:11:17;;;;;;;41.60;33.78;;;;;;;5.25;85.01;100995.25;5016171;28;20481;-76
2021/04/21 02:14:07;;;;;;;42.95;31.77;;;;;;;5.34;84.85;100992.97;5025545;28;20030;-76
2021/04/21 02:17:01;;;;;;;48.38;34.10;;;;;;;5.42;84.33;100993.38;5027064;28;20036;-76
2021/04/21 02:19:26;;;;;;;41.53;31.40;;;;;;;5.41;84.89;100991.63;5018125;28;20029;-76
2021/04/21 02:22:17;;;;;;;42.50;35.08;;;;;;;5.39;84.67;100988.22;5032730;28;20043;-76
2021/04/21 02:25:10;;;;;;;43.85;33.08;;;;;;;5.49;84.62;100995.53;5014830;28;20044;-76
2021/04/21 02:28:01;;;;;;;37.40;31.85;;;;;;;5.44;84.04;100989.63;5020010;28;20021;-76
2021/04/21 02:30:41;;;;;;;41.00;32.28;;;;;;;5.37;84.35;100987.47;5032265;28;20507;-76
2021/04/21 02:33:42;;;;;;;41.53;31.10;;;;;;;5.30;85.15;100989.66;5016134;28;20413;-76
2021/04/21 02:36:16;;;;;;;40.70;32.38;;;;;;;5.31;85.14;100986.03;5021023;28;20041;-76
2021/04/21 02:39:21;;;;;;;37.42;30.17;;;;;;;5.23;84.93;100975.84;5028178;28;20060;-76
2021/04/21 02:42:02;;;;;;;40.45;31.10;;;;;;;5.32;84.33;100979.72;5020818;28;20036;-76
2021/04/21 02:45:04;;;;;;;45.90;31.08;;;;;;;5.30;84.77;100974.50;5032521;28;20033;-76
2021/04/21 02:47:37;;;;;;;;;;;;;;;5.22;84.91;100973.28;5017944;28;20037;-75
2021/04/21 02:50:24;;;;;;;38.97;30.58;;;;;;;5.18;85.38;100974.41;5032214;28;19920;-75
2021/04/21 02:53:13;;;;;;;43.25;32.70;;;;;;;5.13;85.05;100968.50;5027542;28;20041;-76
2021/04/21 02:55:48;;;;;;;38.03;31.00;;;;;;;5.02;85.00;100977.16;5012458;28;20025;-76
2021/04/21 02:58:28;;;;;;;36.38;30.30;;;;;;;4.99;86.22;100969.34;5024065;28;20064;-76
2021/04/21 03:01:09;;;;;;;37.28;28.70;;;;;;;4.90;85.53;100975.25;5015050;28;20021;-76
2021/04/21 03:03:48;;;;;;;39.25;30.38;;;;;;;4.91;86.51;100967.16;5023562;28;20055;-76
2021/04/21 03:06:21;;;;;;;41.67;31.40;;;;;;;4.89;85.87;100968.22;5022203;28;20069;-76
2021/04/21 03:08:52;;;;;;;37.65;31.38;;;;;;;4.90;85.49;100973.47;5014948;28;20069;-76
2021/04/21 03:11:20;;;;;;;39.70;31.23;;;;;;;4.89;86.08;100971.72;5027354;28;20128;-75
2021/04/21 03:13:54;;;;;;;40.83;30.08;;;;;;;4.87;86.37;100973.66;5019727;28;20489;-75
2021/04/21 03:16:21;;;;;;;34.80;27.13;;;;;;;4.82;85.95;100965.06;5018794;28;20175;-76
2021/04/21 03:18:49;;;;;;;39.45;29.85;;;;;;;4.87;85.96;100970.09;5027798;28;20037;-76
2021/04/21 03:21:19;;;;;;;38.60;30.00;;;;;;;4.86;85.37;100974.56;5013924;28;20031;-76
2021/04/21 03:23:47;;;;;;;39.72;31.30;;;;;;;4.87;85.58;100968.31;5023450;28;20029;-76
2021/04/21 03:26:15;;;;;;;47.20;30.23;;;;;;;4.77;84.81;100978.66;5023739;28;20464;-76
2021/04/21 03:28:46;;;;;;;37.55;30.65;;;;;;;4.68;85.07;100973.03;5015859;28;20056;-76
2021/04/21 03:31:13;;;;;;;42.27;34.30;;;;;;;4.66;86.05;100961.63;5031611;28;20025;-75
2021/04/21 03:33:43;;;;;;;44.42;33.72;;;;;;;4.72;86.69;100964.78;5024293;28;20071;-75
2021/04/21 03:36:09;;;;;;;41.60;32.92;;;;;;;4.76;85.41;100963.63;5023226;28;20507;-75
2021/04/21 03:38:35;;;;;;;47.10;33.78;;;;;;;4.76;85.27;100963.63;5016385;28;20437;-75
2021/04/21 03:41:00;;;;;;;47.80;36.45;;;;;;;4.71;86.68;100960.38;5027453;28;20533;-76
2021/04/21 03:43:28;;;;;;;48.42;34.65;;;;;;;4.67;86.24;100958.84;5016285;28;20025;-76
2021/04/21 03:45:53;;;;;;;49.80;38.67;;;;;;;4.73;87.02;100958.47;5022369;28;20064;-75
2021/04/21 03:48:19;;;;;;;48.88;38.28;;;;;;;4.82;87.16;100963.25;5023583;28;20548;-76
2021/04/21 03:50:49;;;;;;;52.28;40.67;;;;;;;4.88;87.72;100964.69;5014876;28;20047;-76
2021/04/21 03:53:17;;;;;;;60.67;42.10;;;;;;;4.92;87.61;100958.22;5027026;28;20449;-75
2021/04/21 03:55:44;;;;;;;49.90;38.63;;;;;;;4.89;87.57;100963.72;5011600;28;20126;-76
2021/04/21 03:58:12;;;;;;;54.33;42.35;;;;;;;4.92;88.41;100960.03;5020543;28;20033;-76
2021/04/21 04:00:39;;;;;;;68.45;44.55;;;;;;;4.98;88.58;100959.66;5015860;28;20066;-76
2021/04/21 04:03:27;;;;;;;57.53;44.05;;;;;;;5.05;88.17;100955.63;5025286;28;20162;-76
2021/04/21 04:06:16;;;;;;;68.10;46.65;;;;;;;5.16;88.93;100957.66;5010968;28;20037;-75
2021/04/21 04:08:48;;;;;;;60.88;46.60;;;;;;;5.30;89.01;100957.66;5026744;28;20587;-76
2021/04/21 04:11:16;;;;;;;61.45;45.22;;;;;;;5.37;88.56;100958.13;5010504;28;20476;-76
2021/04/21 04:13:47;;;;;;;67.78;47.80;;;;;;;5.56;88.14;100952.47;5018315;28;20574;-76
2021/04/21 04:16:13;;;;;;;68.78;49.92;;;;;;;5.74;87.46;100954.78;5019382;28;20391;-76
2021/04/21 04:18:40;;;;;;;63.38;46.53;;;;;;;5.90;86.35;100961.81;5026383;28;20131;-76
2021/04/21 04:21:07;;;;;;;68.97;48.25;;;;;;;6.07;85.58;100960.75;5014089;28;20038;-76
2021/04/21 04:23:37;;;;;;;66.97;46.83;;;;;;;6.21;85.25;100961.53;5022577;28;20402;-76
2021/04/21 04:26:05;;;;;;;65.75;46.63;;;;;;;6.24;84.68;100951.59;5021057;28;20035;-76
2021/04/21 04:28:35;;;;;;;65.18;46.95;;;;;;;6.27;84.82;100952.25;5015704;28;20124;-76
2021/04/21 04:31:02;;;;;;;63.72;48.55;;;;;;;6.32;84.63;100946.59;5012642;28;20033;-75
2021/04/21 04:33:29;;;;;;;75.05;48.97;;;;;;;6.34;84.79;100961.56;5022724;28;20022;-76
2021/04/21 04:35:54;;;;;;;70.75;48.47;;;;;;;6.43;84.78;100965.44;5020957;28;20414;-76
2021/04/21 04:38:20;;;;;;;69.95;48.75;;;;;;;6.48;84.71;100957.94;5017665;28;20080;-76
2021/04/21 04:40:45;;;;;;;67.75;44.78;;;;;;;6.63;84.10;100958.72;5025060;28;20103;-76
2021/04/21 04:43:11;;;;;;;68.18;48.33;;;;;;;6.65;84.06;100955.00;5013846;28;20388;-76
2021/04/21 04:45:40;;;;;;;65.97;46.72;;;;;;;6.76;83.86;100959.59;5024234;28;20071;-76
2021/04/21 04:48:14;;;;;;;72.20;46.63;;;;;;;6.82;83.51;100958.31;5021532;28;20048;-76
2021/04/21 04:50:41;;;;;;;67.25;47.45;;;;;;;6.90;83.46;100966.66;5014998;28;20037;-76
2021/04/21 04:53:07;;;;;;;64.88;46.92;;;;;;;6.91;83.64;100965.69;5014889;28;20036;-76
2021/04/21 04:55:33;;;;;;;72.30;48.85;;;;;;;6.96;84.34;100962.72;5024174;28;20033;-76
2021/04/21 04:58:01;;;;;;;73.05;49.33;;;;;;;7.08;83.98;100964.53;5020601;28;20428;-76
2021/04/21 05:00:28;;;;;;;67.85;46.05;;;;;;;7.19;83.58;100969.97;5015414;28;20152;-76
2021/04/21 05:03:03;;;;;;;66.50;46.38;;;;;;;7.26;83.66;100973.94;5011232;28;20084;-76
2021/04/21 05:05:30;;;;;;;63.08;42.60;;;;;;;7.31;83.06;100969.09;5022953;28;20057;-76
2021/04/21 05:08:05;;;;;;;60.78;41.47;;;;;;;7.34;82.55;100971.53;5018311;28;20056;-76
2021/04/21 05:10:40;;;;;;;56.55;41.90;;;;;;;7.37;81.85;100978.50;5016072;28;20045;-76
2021/04/21 05:13:08;;;;;;;58.50;38.53;;;;;;;7.27;81.62;100978.31;5030196;28;20021;-76
2021/04/21 05:15:39;;;;;;;55.38;37.53;;;;;;;7.29;80.60;100984.41;5020742;28;20111;-76
2021/04/21 05:18:25;;;;;;;53.15;39.05;;;;;;;7.33;80.53;100977.88;5022948;28;20025;-76
2021/04/21 05:21:18;;;;;;;52.17;37.22;;;;;;;7.31;80.22;100987.81;5030158;28;20040;-76
2021/04/21 05:24:05;;;;;;;54.45;39.55;;;;;;;7.39;80.44;100981.94;5021573;28;20458;-76
2021/04/21 05:27:08;;;;;;;54.95;36.78;;;;;;;7.47;79.70;100989.41;5019393;28;20474;-76
2021/04/21 05:29:59;;;;;;;52.95;36.25;;;;;;;7.66;79.13;101000.50;4989524;28;20049;-76
2021/04/21 05:32:58;;;;;;;48.75;34.28;;;;;;;7.69;78.33;100992.25;5027281;28;20174;-76
2021/04/21 05:35:35;;;;;;;48.88;33.25;;;;;;;7.74;78.22;100990.09;5019088;28;20476;-76
2021/04/21 05:38:43;;;;;;;49.40;32.83;;;;;;;7.62;78.15;100996.31;5031436;28;20481;-76
2021/04/21 05:41:42;;;;;;;49.80;33.85;;;;;;;7.57;78.39;100995.81;5015481;28;20127;-76
2021/04/21 05:44:32;;;;;;;52.72;32.78;;;;;;;7.48;79.13;101000.00;5021544;28;20065;-73
2021/04/21 05:47:18;;;;;;;42.75;31.52;;;;;;;7.49;78.91;101006.22;5029344;28;20036;-75
2021/04/21 05:50:21;;;;;;;44.15;31.52;;;;;;;7.44;79.18;100994.97;5013627;28;20039;-76
2021/04/21 05:53:08;;;;;;;46.70;31.95;;;;;;;7.44;78.91;100994.97;5015316;28;20091;-76
2021/04/21 05:56:01;;;;;;;46.17;31.13;;;;;;;7.40;78.95;100999.69;5011999;28;20860;-77
2021/04/21 05:58:50;;;;;;;45.03;27.83;;;;;;;7.50;78.03;100999.88;5026288;28;20049;-76
2021/04/21 06:01:24;;;;;;;40.95;27.13;;;;;;;7.54;77.98;101002.25;5017304;28;20025;-76
2021/04/21 06:03:52;;;;;;;44.15;28.42;;;;;;;7.53;77.57;101008.56;5032769;28;20414;-75
2021/04/21 06:06:18;;;;;;;42.05;28.17;;;;;;;7.65;77.42;101003.28;5020487;28;20116;-75
2021/04/21 06:08:43;;;;;;;41.08;27.02;;;;;;;7.72;76.95;101015.28;5028937;28;20043;-75
2021/04/21 06:11:26;;;;;;;36.63;26.60;;;;;;;7.85;76.45;101012.56;5016675;28;20580;-75
2021/04/21 06:13:59;;;;;;;36.83;24.80;;;;;;;7.89;75.81;101012.22;5023871;28;20124;-75
2021/04/21 06:16:26;;;;;;;36.35;22.08;;;;;;;7.88;74.70;101009.66;5026179;28;20039;-77
2021/04/21 06:18:54;;;;;;;34.13;22.48;;;;;;;7.98;74.58;101016.03;5016214;28;20382;-75
2021/04/21 06:21:21;;;;;;;36.05;22.95;;;;;;;8.16;74.05;101020.06;5027130;28;20036;-76
2021/04/21 06:23:47;;;;;;;32.88;19.77;;;;;;;8.14;73.28;101022.00;5019062;28;20047;-76
2021/04/21 06:26:19;;;;;;;32.72;19.98;;;;;;;8.12;73.68;101013.22;5021164;28;20036;-76
2021/04/21 06:28:57;;;;;;;32.35;18.48;;;;;;;8.10;72.68;101023.19;5029140;28;20149;-76
2021/04/21 06:31:31;;;;;;;21.33;15.68;;;;;;;8.24;71.64;101012.31;5010844;28;20029;-76
2021/04/21 06:33:56;;;;;;;24.40;15.52;;;;;;;8.22;72.35;101013.38;5022659;28;20448;-76
2021/04/21 06:36:21;;;;;;;26.15;15.80;;;;;;;8.14;72.44;101013.97;5019594;28;20083;-76
2021/04/21 06:38:54;;;;;;;30.27;14.80;;;;;;;8.00;72.53;101014.97;5029695;28;20064;-76
2021/04/21 06:41:24;;;;;;;26.10;16.30;;;;;;;7.78;73.50;101010.34;5019618;28;20511;-76
2021/04/21 06:43:49;;;;;;;26.23;14.30;;;;;;;7.73;74.29;101014.31;5027728;28;20029;-76
2021/04/21 06:46:18;;;;;;;22.40;12.25;;;;;;;7.66;74.81;101016.56;5028019;28;20372;-76
2021/04/21 06:48:44;;;;;;;16.42;12.32;;;;;;;7.67;74.68;101015.59;5033990;28;20044;-76
2021/04/21 06:51:14;;;;;;;19.55;10.90;;;;;;;7.75;73.16;101009.72;5033194;28;20384;-76
2021/04/21 06:53:41;;;;;;;15.00;9.73;;;;;;;7.79;72.67;101012.03;5024307;28;20168;-75
2021/04/21 06:56:06;;;;;;;16.02;9.75;;;;;;;8.00;71.77;101014.97;5013920;28;20490;-75
2021/04/21 06:58:34;;;;;;;16.00;8.90;;;;;;;8.15;70.19;101015.66;5026295;28;20033;-75
2021/04/21 07:01:10;;;;;;;11.20;6.18;;;;;;;8.15;67.44;101025.53;5014925;28;20033;-75
2021/04/21 07:03:36;;;;;;;11.25;5.30;;;;;;;8.07;64.52;101008.19;5025396;28;20040;-75
2021/04/21 07:06:02;;;;;;;14.82;4.03;;;;;;;8.10;63.19;101017.81;5020891;28;20025;-75
2021/04/21 07:08:33;;;;;;;10.10;4.35;;;;;;;8.35;62.39;101024.03;5025602;28;20035;-75
2021/04/21 07:11:01;;;;;;;9.25;3.88;;;;;;;8.46;62.28;101006.22;5029619;28;20077;-75
2021/04/21 07:13:32;;;;;;;8.07;2.90;;;;;;;8.47;59.86;101017.78;5017432;28;20036;-75
2021/04/21 07:16:00;;;;;;;10.90;2.45;;;;;;;8.60;57.63;101018.59;5022333;28;20033;-75
2021/04/21 07:18:36;;;;;;;11.25;3.15;;;;;;;8.89;57.21;101034.28;5023783;28;20120;-75
2021/04/21 07:21:04;;;;;;;11.18;3.38;;;;;;;8.91;57.35;101013.56;5012727;28;20059;-75
2021/04/21 07:23:31;;;;;;;7.50;2.30;;;;;;;8.75;55.96;101016.56;5024791;28;20159;-75
2021/04/21 07:25:58;;;;;;;12.48;3.10;;;;;;;8.87;55.71;101034.38;5020144;28;20044;-75
2021/04/21 07:28:25;;;;;;;11.95;2.38;;;;;;;9.11;55.32;101020.06;5017927;28;20437;-75
2021/04/21 07:30:52;;;;;;;9.35;2.97;;;;;;;9.25;53.29;101025.22;5025921;28;20068;-76
2021/04/21 07:33:39;;;;;;;11.40;2.75;;;;;;;9.65;53.40;101020.22;5015644;28;20531;-75
2021/04/21 07:36:09;;;;;;;8.63;2.03;;;;;;;9.77;53.10;101031.81;5020453;28;20083;-76
2021/04/21 07:38:43;;;;;;;12.98;2.80;;;;;;;9.69;54.50;101028.03;5026059;28;20480;-76
2021/04/21 07:41:10;;;;;;;13.90;2.60;;;;;;;9.55;55.99;101031.78;5013218;28;20028;-75
2021/04/21 07:43:38;;;;;;;16.60;3.50;;;;;;;9.37;56.84;101026.09;5024505;28;20568;-76
2021/04/21 07:46:04;;;;;;;13.10;2.72;;;;;;;9.64;57.17;101020.31;5020583;28;20048;-75
2021/04/21 07:48:35;;;;;;;12.80;2.67;;;;;;;9.75;56.93;101023.00;5017038;28;20385;-75
2021/04/21 07:51:26;;;;;;;8.88;2.60;;;;;;;9.98;55.62;101023.84;5027460;28;20053;-75
2021/04/21 07:54:01;;;;;;;7.25;2.20;;;;;;;9.97;56.47;101018.59;5010571;28;20037;-75
2021/04/21 07:56:34;;;;;;;12.25;3.22;;;;;;;10.18;56.78;101018.66;5023408;28;20033;-75
2021/04/21 07:59:13;;;;;;;15.27;3.10;;;;;;;10.23;57.62;101017.31;5027526;28;20037;-75
2021/04/21 08:01:38;;;;;;;15.68;2.92;;;;;;;10.17;56.85;101028.56;5024054;28;20076;-75
2021/04/21 08:04:20;;;;;;;16.85;2.70;;;;;;;9.86;57.09;101024.84;5010821;28;20684;-75
2021/04/21 08:06:48;;;;;;;13.80;3.28;;;;;;;9.40;58.10;101024.00;5011700;28;20116;-75
2021/04/21 08:09:14;;;;;;;17.20;3.17;;;;;;;9.28;58.67;101030.34;5009099;28;20030;-75
2021/04/21 08:11:39;;;;;;;13.23;2.80;;;;;;;9.12;56.52;101024.44;5017674;28;20396;-75
2021/04/21 08:14:04;;;;;;;18.70;3.30;;;;;;;9.29;56.16;101012.41;5010850;28;20458;-75
2021/04/21 08:16:33;;;;;;;15.07;3.22;;;;;;;9.65;55.22;101016.69;5023612;28;20025;-75
2021/04/21 08:19:00;;;;;;;17.25;3.03;;;;;;;10.02;53.70;101022.59;5014224;28;20037;-75
2021/04/21 08:21:41;;;;;;;15.13;3.15;;;;;;;10.25;53.68;101025.22;5025842;28;20026;-75
2021/04/21 08:24:09;;;;;;;17.92;3.22;;;;;;;10.24;51.98;101028.91;5021716;28;20550;-75
2021/04/21 08:26:34;;;;;;;8.73;2.20;;;;;;;9.83;51.39;101019.72;5014376;28;20045;-75
2021/04/21 08:29:00;;;;;;;10.15;2.38;;;;;;;9.76;50.47;101027.41;5026931;28;20029;-75
2021/04/21 08:31:27;;;;;;;16.33;2.70;;;;;;;9.83;50.66;101025.09;5011061;28;20552;-75
2021/04/21 08:33:53;;;;;;;18.52;3.28;;;;;;;10.47;48.54;101022.53;5020702;28;20131;-76
2021/04/21 08:36:19;;;;;;;9.15;2.00;;;;;;;10.78;46.38;101030.69;5016498;28;20033;-76
2021/04/21 08:38:46;;;;;;;15.55;4.30;;;;;;;10.63;45.88;101038.22;5026900;28;20024;-76
2021/04/21 08:41:15;;;;;;;17.50;3.13;;;;;;;10.51;47.20;101031.19;5009137;28;20026;-76
2021/04/21 08:43:45;;;;;;;16.42;3.70;;;;;;;10.57;47.42;101036.03;5017955;28;20413;-77
2021/04/21 08:46:12;;;;;;;14.20;3.13;;;;;;;10.64;48.15;101053.38;5020453;28;20112;-76
2021/04/21 08:48:37;;;;;;;15.30;3.88;;;;;;;10.23;48.87;101063.00;5024436;28;20168;-76
2021/04/21 08:51:06;;;;;;;11.98;3.03;;;;;;;9.81;48.82;101052.06;5015145;28;20029;-76
2021/04/21 08:53:36;;;;;;;14.88;3.03;;;;;;;9.62;48.43;101039.25;5017151;28;20028;-76
2021/04/21 08:56:04;;;;;;;16.30;2.85;;;;;;;9.72;51.16;101044.75;5019868;28;20395;-75
2021/04/21 08:58:32;;;;;;;11.88;2.92;;;;;;;9.74;49.71;101032.06;5030353;28;20431;-76
2021/04/21 09:00:57;;;;;;;16.90;3.47;;;;;;;9.88;49.36;101037.16;5014482;28;20041;-75
2021/04/21 09:03:23;;;;;;;17.80;3.25;;;;;;;9.95;48.01;101042.91;5013766;28;20048;-75
2021/04/21 09:05:51;;;;;;;15.70;2.92;;;;;;;9.90;48.91;101037.88;5022073;28;20047;-74
2021/04/21 09:08:20;;;;;;;16.42;3.45;;;;;;;10.32;48.28;101037.25;5022092;28;20461;-75
2021/04/21 09:10:47;;;;;;;14.57;2.67;;;;;;;10.32;46.53;101056.06;5030867;28;20341;-75
2021/04/21 09:13:13;;;;;;;16.30;2.60;;;;;;;10.56;45.00;101051.34;5014641;28;20021;-75
2021/04/21 09:15:38;;;;;;;16.75;2.67;;;;;;;10.53;45.55;101039.97;5019546;28;20499;-75
2021/04/21 09:18:04;;;;;;;18.02;3.10;;;;;;;10.05;45.54;101041.16;5034241;28;20079;-75
2021/04/21 09:20:29;;;;;;;11.00;2.78;;;;;;;9.60;44.73;101051.94;5019713;28;20029;-75
2021/04/21 09:23:12;;;;;;;20.17;2.45;;;;;;;9.37;47.01;101047.56;5030617;28;20664;-75
2021/04/21 09:25:44;;;;;;;10.93;2.50;;;;;;;9.99;46.49;101049.72;5021346;28;20021;-76
2021/04/21 09:28:13;;;;;;;19.10;3.03;;;;;;;10.24;45.68;101039.66;5020880;28;20044;-75
2021/04/21 09:30:40;;;;;;;15.90;3.42;;;;;;;9.75;46.60;101039.13;5029250;28;20033;-76
2021/04/21 09:33:07;;;;;;;10.93;2.50;;;;;;;9.99;47.29;101048.88;5016881;28;20152;-76
2021/04/21 09:35:38;;;;;;;19.55;2.33;;;;;;;10.67;45.86;101036.13;5027735;28;20102;-75
2021/04/21 09:38:24;;;;;;;14.77;2.42;;;;;;;10.49;45.39;101025.91;5024506;28;20040;-75
2021/04/21 09:41:02;;;;;;;18.92;3.85;;;;;;;10.03;44.98;101051.19;5015262;28;20073;-75
2021/04/21 09:43:34;;;;;;;16.98;3.88;;;;;;;9.35;48.05;101047.66;5027908;28;20032;-75
2021/04/21 09:46:20;;;;;;;16.27;3.67;;;;;;;8.96;48.01;101052.47;5024161;28;20025;-76
2021/04/21 09:48:47;;;;;;;15.88;4.30;;;;;;;8.74;48.49;101047.03;5015353;28;20036;-76
2021/04/21 09:51:15;;;;;;;11.23;3.03;;;;;;;8.74;45.59;101028.25;5015471;28;20044;-75
2021/04/21 09:53:51;;;;;;;13.80;3.05;;;;;;;8.78;45.15;101047.66;5026459;28;20488;-75
2021/04/21 09:56:17;;;;;;;15.48;3.38;;;;;;;9.01;43.80;101038.69;5013300;28;20029;-75
2021/04/21 09:58:46;;;;;;;13.85;4.32;;;;;;;8.89;42.87;101056.59;5012753;28;20041;-75
2021/04/21 10:01:32;;;;;;;14.48;3.35;;;;;;;8.84;42.38;101036.44;5016750;28;20032;-75
2021/04/21 10:04:10;;;;;;;14.77;3.53;;;;;;;8.89;43.38;101043.19;5033201;28;20033;-75
2021/04/21 10:06:43;;;;;;;10.95;2.83;;;;;;;8.93;43.21;101028.56;5017356;28;20090;-76
2021/04/21 10:09:25;;;;;;;14.43;3.55;;;;;;;8.91;42.40;101035.88;5029278;28;20044;-75
2021/04/21 10:11:51;;;;;;;10.98;3.75;;;;;;;8.94;43.31;101016.03;5022278;28;20036;-75
2021/04/21 10:14:24;;;;;;;10.63;3.00;;;;;;;9.15;42.65;101029.56;5020680;28;20551;-74
2021/04/21 10:16:51;;;;;;;14.35;2.58;;;;;;;9.14;42.19;101034.09;5028929;28;20032;-75
2021/04/21 10:19:18;;;;;;;13.93;3.72;;;;;;;9.15;41.35;101034.94;5017487;28;20051;-75
2021/04/21 10:21:43;;;;;;;14.82;3.63;;;;;;;9.20;42.90;101024.72;5022044;28;20037;-75
2021/04/21 10:24:09;;;;;;;17.50;3.42;;;;;;;9.28;42.46;101027.66;5032564;28;20066;-74
2021/04/21 10:26:35;;;;;;;10.52;2.95;;;;;;;9.53;42.76;101044.50;5031198;28;20025;-75
2021/04/21 10:29:02;;;;;;;15.65;3.33;;;;;;;9.57;43.85;101032.53;5030291;28;20033;-75
2021/04/21 10:31:27;;;;;;;19.27;3.63;;;;;;;9.58;44.35;101037.81;5016814;28;20480;-75
2021/04/21 10:33:53;;;;;;;13.30;3.00;;;;;;;9.52;43.56;101040.97;5022893;28;20029;-75
2021/04/21 10:36:18;;;;;;;13.38;3.15;;;;;;;9.60;43.52;101019.72;5023938;28;20124;-75
2021/04/21 10:38:44;;;;;;;13.38;3.92;;;;;;;10.06;43.23;101032.13;5030464;28;20529;-75
2021/04/21 10:41:19;;;;;;;25.88;4.35;;;;;;;9.94;42.22;101037.63;5027235;28;20021;-74
2021/04/21 10:43:45;;;;;;;12.60;3.05;;;;;;;9.85;42.05;101031.19;5018956;28;20036;-75
2021/04/21 10:46:10;;;;;;;10.52;2.60;;;;;;;9.92;41.51;101024.34;5019261;28;20034;-76
2021/04/21 10:48:41;;;;;;;16.23;5.13;;;;;;;9.74;42.92;101026.69;5027587;28;20048;-76
2021/04/21 10:51:40;;;;;;;13.87;3.93;;;;;;;10.25;43.60;101033.28;5013468;28;20562;-76
2021/04/21 10:54:08;;;;;;;15.52;3.72;;;;;;;10.67;42.96;101052.25;5023358;28;20063;-76
2021/04/21 10:56:35;;;;;;;14.88;3.78;;;;;;;10.59;42.21;101020.66;5016062;28;20120;-75
2021/04/21 10:59:02;;;;;;;11.20;2.47;;;;;;;10.16;42.66;101040.28;5014466;28;20065;-75
2021/04/21 11:01:30;;;;;;;7.68;1.90;;;;;;;10.03;42.18;101029.69;5026023;28;20415;-75
2021/04/21 11:03:55;;;;;;;12.85;2.28;;;;;;;10.63;41.28;101023.91;5021576;28;20029;-75
2021/04/21 11:06:39;;;;;;;15.35;2.28;;;;;;;10.34;43.68;101030.72;5018745;28;20026;-76
2021/04/21 11:09:08;;;;;;;16.35;2.35;;;;;;;10.01;44.46;101046.91;5027764;28;20503;-75
2021/04/21 11:11:47;;;;;;;14.02;1.52;;;;;;;9.70;41.51;101025.19;5018888;28;20082;-76
2021/04/21 11:14:17;;;;;;;9.70;1.52;;;;;;;9.64;41.91;101037.31;5020025;28;20068;-75
2021/04/21 11:16:44;;;;;;;6.53;1.67;;;;;;;9.85;42.71;101025.81;5028019;28;20098;-75
2021/04/21 11:19:18;;;;;;;6.47;1.63;;;;;;;10.37;42.69;101035.00;5013373;28;20092;-75
2021/04/21 11:21:45;;;;;;;12.95;2.05;;;;;;;11.20;41.61;101025.28;5024368;28;20468;-75
2021/04/21 11:24:11;;;;;;;12.60;2.63;;;;;;;10.95;42.77;101042.69;5021772;28;20021;-76
2021/04/21 11:26:39;;;;;;;14.05;2.17;;;;;;;10.24;41.80;101036.97;5016446;28;20033;-75
2021/04/21 11:29:21;;;;;;;11.75;2.30;;;;;;;10.51;43.57;101034.72;5012363;28;20033;-75
2021/04/21 11:32:06;;;;;;;14.68;3.28;;;;;;;10.66;44.96;101042.50;5022961;28;20040;-76
2021/04/21 11:34:34;;;;;;;22.88;3.55;;;;;;;10.09;46.03;101050.69;5025899;28;20028;-76
2021/04/21 11:37:00;;;;;;;18.00;2.33;;;;;;;9.56;45.67;101050.50;5012696;28;20366;-75
2021/04/21 11:39:40;;;;;;;17.58;2.58;;;;;;;9.54;47.29;101049.75;5024340;28;20540;-75
2021/04/21 11:42:33;;;;;;;20.23;2.80;;;;;;;9.61;47.44;101040.25;5022462;28;20074;-75
2021/04/21 11:45:19;;;;;;;13.90;2.28;;;;;;;9.69;45.90;101050.34;5014474;28;20036;-76
2021/04/21 11:47:49;;;;;;;17.45;2.05;;;;;;;9.85;44.78;101028.50;5022909;28;20029;-76